PWSweather.com
Personal Weather Stations
Station Observations
LUKAS
Viterbo, MartaIT 01010

ViterboMartaIT 01010

Lat: 42.5370989, Lon: 11.9204865

Elevation: 896

Station Type: La Crosse WS 2305

http://www.meteomarta.altervista.org/

High Low Average
Temperature 80.2°F26.8°C 66.4°F19.1°C 73.0°F22.8°C
Dew Point 64.1°F17.8°C 56.4°F13.6°C 60.0°F15.6°C
Winds 21.7 mph 34.9 kmh Calm Calm 12.0 mph NNE19.3 kmh NNE
Wind Gusts 31.1 mph50.1 kmh 13.9 mph22.4 kmh 21.0 mph33.8 kmh
Humidity 79% 51% 64%
Pressure 29.94 in1013.9 mb 29.79 in1008.8 mb -
Precipitation 0.00 in0.0 mm - -
Hour Temp Dew Point Humidity Winds Wind Gusts Pressure Precip Precip Rate Daily Precip Total
12:00 AM 68.0°F20.0°C 58.7°F14.8°C 72% 15.9 mph N25.6 kmh N 22.6 mph36.4 kmh 29.79 in1008.8 mb 0.00 in0.0 mm 0.00 in0.0 mm 0.00 in0.0 mm
12:15 AM 67.6°F19.8°C 57.6°F14.2°C 70% 15.7 mph NNE25.3 kmh NNE 23.5 mph37.8 kmh 29.79 in1008.8 mb 0.00 in0.0 mm 0.00 in0.0 mm 0.00 in0.0 mm
12:30 AM 67.3°F19.6°C 58.3°F14.6°C 73% 20.4 mph NNE32.8 kmh NNE 25.5 mph41.0 kmh 29.80 in1009.1 mb 0.00 in0.0 mm 0.00 in0.0 mm 0.00 in0.0 mm
12:45 AM 66.9°F19.4°C 58.4°F14.7°C 74% 19.0 mph NNE30.6 kmh NNE 29.1 mph46.8 kmh 29.80 in1009.1 mb 0.00 in0.0 mm 0.00 in0.0 mm 0.00 in0.0 mm
01:00 AM 66.7°F19.3°C 58.5°F14.7°C 75% 11.6 mph N18.7 kmh N 23.3 mph37.5 kmh 29.81 in1009.5 mb 0.00 in0.0 mm 0.00 in0.0 mm 0.00 in0.0 mm
01:15 AM 66.7°F19.3°C 57.8°F14.3°C 73% 15.4 mph NNE24.8 kmh NNE 20.6 mph33.2 kmh 29.82 in1009.8 mb 0.00 in0.0 mm 0.00 in0.0 mm 0.00 in0.0 mm
01:30 AM 66.7°F19.3°C 58.2°F14.6°C 74% 16.8 mph N27.0 kmh N 21.7 mph34.9 kmh 29.82 in1009.8 mb 0.00 in0.0 mm 0.00 in0.0 mm 0.00 in0.0 mm
01:45 AM 67.1°F19.5°C 58.5°F14.7°C 74% 9.4 mph N15.1 kmh N 21.9 mph35.2 kmh 29.81 in1009.5 mb 0.00 in0.0 mm 0.00 in0.0 mm 0.00 in0.0 mm
02:00 AM 66.7°F19.3°C 57.8°F14.3°C 73% 17.0 mph N27.4 kmh N 19.2 mph30.9 kmh 29.81 in1009.5 mb 0.00 in0.0 mm 0.00 in0.0 mm 0.00 in0.0 mm
02:15 AM 66.4°F19.1°C 57.4°F14.1°C 73% 9.8 mph N15.8 kmh N 20.4 mph32.8 kmh 29.81 in1009.5 mb 0.00 in0.0 mm 0.00 in0.0 mm 0.00 in0.0 mm
02:30 AM 66.4°F19.1°C 57.8°F14.3°C 74% 17.9 mph NNE28.8 kmh NNE 19.7 mph31.7 kmh 29.80 in1009.1 mb 0.00 in0.0 mm 0.00 in0.0 mm 0.00 in0.0 mm
02:45 AM 66.4°F19.1°C 57.4°F14.1°C 73% 5.1 mph NNE8.2 kmh NNE 21.0 mph33.8 kmh 29.80 in1009.1 mb 0.00 in0.0 mm 0.00 in0.0 mm 0.00 in0.0 mm
03:00 AM 66.6°F19.2°C 58.0°F14.4°C 74% 18.1 mph NNE29.1 kmh NNE 21.7 mph34.9 kmh 29.80 in1009.1 mb 0.00 in0.0 mm 0.00 in0.0 mm 0.00 in0.0 mm
03:15 AM 66.7°F19.3°C 58.2°F14.6°C 74% 17.4 mph NNE28.0 kmh NNE 21.3 mph34.3 kmh 29.80 in1009.1 mb 0.00 in0.0 mm 0.00 in0.0 mm 0.00 in0.0 mm
03:30 AM 66.7°F19.3°C 58.2°F14.6°C 74% 19.2 mph NNE30.9 kmh NNE 25.1 mph40.4 kmh 29.80 in1009.1 mb 0.00 in0.0 mm 0.00 in0.0 mm 0.00 in0.0 mm
03:45 AM 67.1°F19.5°C 58.2°F14.6°C 73% 18.3 mph NNE29.5 kmh NNE 21.3 mph34.3 kmh 29.79 in1008.8 mb 0.00 in0.0 mm 0.00 in0.0 mm 0.00 in0.0 mm
04:00 AM 67.3°F19.6°C 58.7°F14.8°C 74% 13.6 mph NNE21.9 kmh NNE 21.5 mph34.6 kmh 29.80 in1009.1 mb 0.00 in0.0 mm 0.00 in0.0 mm 0.00 in0.0 mm
04:15 AM 67.6°F19.8°C 58.7°F14.8°C 73% 15.7 mph NNE25.3 kmh NNE 23.9 mph38.5 kmh 29.80 in1009.1 mb 0.00 in0.0 mm 0.00 in0.0 mm 0.00 in0.0 mm
04:30 AM 67.8°F19.9°C 60.0°F15.6°C 76% 8.3 mph NNE13.4 kmh NNE 21.3 mph34.3 kmh 29.80 in1009.1 mb 0.00 in0.0 mm 0.00 in0.0 mm 0.00 in0.0 mm
04:45 AM 67.5°F19.7°C 59.6°F15.3°C 76% 11.2 mph NNE18.0 kmh NNE 19.7 mph31.7 kmh 29.81 in1009.5 mb 0.00 in0.0 mm 0.00 in0.0 mm 0.00 in0.0 mm
05:00 AM 67.6°F19.8°C 59.8°F15.4°C 76% 10.5 mph NNE16.9 kmh NNE 21.3 mph34.3 kmh 29.82 in1009.8 mb 0.00 in0.0 mm 0.00 in0.0 mm 0.00 in0.0 mm
05:15 AM 67.3°F19.6°C 59.5°F15.3°C 76% 21.7 mph NNE34.9 kmh NNE 23.0 mph37.0 kmh 29.82 in1009.8 mb 0.00 in0.0 mm 0.00 in0.0 mm 0.00 in0.0 mm
05:30 AM 67.8°F19.9°C 58.9°F14.9°C 73% 10.7 mph NNE17.2 kmh NNE 31.1 mph50.1 kmh 29.81 in1009.5 mb 0.00 in0.0 mm 0.00 in0.0 mm 0.00 in0.0 mm
05:45 AM 67.8°F19.9°C 61.1°F16.2°C 79% 13.2 mph NNE21.2 kmh NNE 30.6 mph49.2 kmh 29.82 in1009.8 mb 0.00 in0.0 mm 0.00 in0.0 mm 0.00 in0.0 mm
06:00 AM 67.8°F19.9°C 60.8°F16.0°C 78% 16.6 mph NNE26.7 kmh NNE 25.3 mph40.7 kmh 29.82 in1009.8 mb 0.00 in0.0 mm 0.00 in0.0 mm 0.00 in0.0 mm
06:15 AM 68.2°F20.1°C 61.1°F16.2°C 78% 10.7 mph NNE17.2 kmh NNE 27.1 mph43.6 kmh 29.82 in1009.8 mb 0.00 in0.0 mm 0.00 in0.0 mm 0.00 in0.0 mm
06:30 AM 68.5°F20.3°C 60.7°F15.9°C 76% 19.0 mph NNE30.6 kmh NNE 24.8 mph39.9 kmh 29.83 in1010.2 mb 0.00 in0.0 mm 0.00 in0.0 mm 0.00 in0.0 mm
06:45 AM 68.7°F20.4°C 60.8°F16.0°C 76% 12.3 mph NNE19.8 kmh NNE 21.5 mph34.6 kmh 29.83 in1010.2 mb 0.00 in0.0 mm 0.00 in0.0 mm 0.00 in0.0 mm
07:00 AM 69.1°F20.6°C 60.8°F16.0°C 75% 12.3 mph NNE19.8 kmh NNE 25.5 mph41.0 kmh 29.83 in1010.2 mb 0.00 in0.0 mm 0.00 in0.0 mm 0.00 in0.0 mm
07:15 AM 69.6°F20.9°C 61.6°F16.4°C 76% 10.3 mph NE16.6 kmh NE 21.0 mph33.8 kmh 29.84 in1010.5 mb 0.00 in0.0 mm 0.00 in0.0 mm 0.00 in0.0 mm
07:30 AM 70.0°F21.1°C 61.2°F16.2°C 75% 20.1 mph NNE32.3 kmh NNE 23.3 mph37.5 kmh 29.84 in1010.5 mb 0.00 in0.0 mm 0.00 in0.0 mm 0.00 in0.0 mm
07:45 AM 70.2°F21.2°C 61.8°F16.6°C 75% 16.8 mph NNE27.0 kmh NNE 25.9 mph41.7 kmh 29.84 in1010.5 mb 0.00 in0.0 mm 0.00 in0.0 mm 0.00 in0.0 mm
08:00 AM 70.5°F21.4°C 61.4°F16.3°C 73% 17.2 mph NNE27.7 kmh NNE 23.3 mph37.5 kmh 29.85 in1010.8 mb 0.00 in0.0 mm 0.00 in0.0 mm 0.00 in0.0 mm
08:15 AM 70.9°F21.6°C 61.4°F16.3°C 72% 11.9 mph NNE19.2 kmh NNE 24.8 mph39.9 kmh 29.85 in1010.8 mb 0.00 in0.0 mm 0.00 in0.0 mm 0.00 in0.0 mm
08:30 AM 71.4°F21.9°C 60.7°F15.9°C 69% 18.1 mph NNE29.1 kmh NNE 23.7 mph38.1 kmh 29.85 in1010.8 mb 0.00 in0.0 mm 0.00 in0.0 mm 0.00 in0.0 mm
08:45 AM 72.0°F22.2°C 61.7°F16.5°C 70% 19.9 mph NNE32.0 kmh NNE 24.2 mph38.9 kmh 29.86 in1011.2 mb 0.00 in0.0 mm 0.00 in0.0 mm 0.00 in0.0 mm
09:00 AM 72.3°F22.4°C 61.2°F16.2°C 68% 15.7 mph NNE25.3 kmh NNE 25.1 mph40.4 kmh 29.86 in1011.2 mb 0.00 in0.0 mm 0.00 in0.0 mm 0.00 in0.0 mm
09:15 AM 73.0°F22.8°C 61.4°F16.3°C 67% 16.8 mph NNE27.0 kmh NNE 21.7 mph34.9 kmh 29.86 in1011.2 mb 0.00 in0.0 mm 0.00 in0.0 mm 0.00 in0.0 mm
09:30 AM 73.6°F23.1°C 61.5°F16.4°C 66% 18.1 mph NNE29.1 kmh NNE 23.3 mph37.5 kmh 29.86 in1011.2 mb 0.00 in0.0 mm 0.00 in0.0 mm 0.00 in0.0 mm
09:45 AM 73.9°F23.3°C 60.9°F16.1°C 64% 19.0 mph NE30.6 kmh NE 21.9 mph35.2 kmh 29.86 in1011.2 mb 0.00 in0.0 mm 0.00 in0.0 mm 0.00 in0.0 mm
10:00 AM 74.1°F23.4°C 62.0°F16.7°C 66% 5.4 mph NE8.7 kmh NE 22.8 mph36.7 kmh 29.86 in1011.2 mb 0.00 in0.0 mm 0.00 in0.0 mm 0.00 in0.0 mm
10:15 AM 74.8°F23.8°C 61.4°F16.3°C 63% 9.2 mph NE14.8 kmh NE 20.8 mph33.5 kmh 29.87 in1011.5 mb 0.00 in0.0 mm 0.00 in0.0 mm 0.00 in0.0 mm
10:30 AM 74.8°F23.8°C 60.5°F15.8°C 61% 14.3 mph NNE23.0 kmh NNE 20.6 mph33.2 kmh 29.88 in1011.9 mb 0.00 in0.0 mm 0.00 in0.0 mm 0.00 in0.0 mm
10:45 AM 75.7°F24.3°C 61.8°F16.6°C 62% 6.3 mph NE10.1 kmh NE 21.0 mph33.8 kmh 29.89 in1012.2 mb 0.00 in0.0 mm 0.00 in0.0 mm 0.00 in0.0 mm
11:00 AM 76.1°F24.5°C 62.1°F16.7°C 62% 10.7 mph NNE17.2 kmh NNE 18.8 mph30.3 kmh 29.88 in1011.9 mb 0.00 in0.0 mm 0.00 in0.0 mm 0.00 in0.0 mm
11:15 AM 76.1°F24.5°C 61.7°F16.5°C 61% 4.3 mph NE6.9 kmh NE 19.5 mph31.4 kmh 29.89 in1012.2 mb 0.00 in0.0 mm 0.00 in0.0 mm 0.00 in0.0 mm
11:30 AM 75.9°F24.4°C 61.1°F16.2°C 60% 2.5 mph NNE4.0 kmh NNE 20.1 mph32.3 kmh 29.89 in1012.2 mb 0.00 in0.0 mm 0.00 in0.0 mm 0.00 in0.0 mm
11:45 AM 76.1°F24.5°C 60.2°F15.7°C 58% 10.5 mph NNE16.9 kmh NNE 22.1 mph35.6 kmh 29.88 in1011.9 mb 0.00 in0.0 mm 0.00 in0.0 mm 0.00 in0.0 mm
12:00 PM 76.8°F24.9°C 61.4°F16.3°C 59% 20.6 mph NNE33.2 kmh NNE 21.0 mph33.8 kmh 29.89 in1012.2 mb 0.00 in0.0 mm 0.00 in0.0 mm 0.00 in0.0 mm
12:15 PM 77.0°F25.0°C 61.1°F16.2°C 57% 4.9 mph NNE7.9 kmh NNE 17.2 mph27.7 kmh 29.88 in1011.9 mb 0.00 in0.0 mm 0.00 in0.0 mm 0.00 in0.0 mm
12:30 PM 77.9°F25.5°C 61.9°F16.6°C 58% 13.9 mph NE22.4 kmh NE 18.6 mph29.9 kmh 29.88 in1011.9 mb 0.00 in0.0 mm 0.00 in0.0 mm 0.00 in0.0 mm
12:45 PM 78.4°F25.8°C 61.4°F16.3°C 56% 10.3 mph NE16.6 kmh NE 18.1 mph29.1 kmh 29.88 in1011.9 mb 0.00 in0.0 mm 0.00 in0.0 mm 0.00 in0.0 mm
01:00 PM 78.6°F25.9°C 60.5°F15.8°C 54% 10.7 mph NNE17.2 kmh NNE 16.8 mph27.0 kmh 29.88 in1011.9 mb 0.00 in0.0 mm 0.00 in0.0 mm 0.00 in0.0 mm
01:15 PM 78.6°F25.9°C 61.1°F16.2°C 55% 17.9 mph NE28.8 kmh NE 20.1 mph32.3 kmh 29.87 in1011.5 mb 0.00 in0.0 mm 0.00 in0.0 mm 0.00 in0.0 mm
01:30 PM 78.6°F25.9°C 59.0°F15.0°C 51% 11.0 mph NE17.7 kmh NE 15.7 mph25.3 kmh 29.88 in1011.9 mb 0.00 in0.0 mm 0.00 in0.0 mm 0.00 in0.0 mm
01:45 PM 79.0°F26.1°C 61.4°F16.3°C 55% 4.0 mph NNE6.4 kmh NNE 15.7 mph25.3 kmh 29.87 in1011.5 mb 0.00 in0.0 mm 0.00 in0.0 mm 0.00 in0.0 mm
02:00 PM 79.3°F26.3°C 60.7°F15.9°C 52% 11.4 mph NNE18.3 kmh NNE 18.8 mph30.3 kmh 29.87 in1011.5 mb 0.00 in0.0 mm 0.00 in0.0 mm 0.00 in0.0 mm
02:15 PM 79.5°F26.4°C 60.9°F16.1°C 53% 2.9 mph NE4.7 kmh NE 16.6 mph26.7 kmh 29.88 in1011.9 mb 0.00 in0.0 mm 0.00 in0.0 mm 0.00 in0.0 mm
02:30 PM 79.3°F26.3°C 60.2°F15.7°C 52% 9.8 mph NNE15.8 kmh NNE 20.4 mph32.8 kmh 29.88 in1011.9 mb 0.00 in0.0 mm 0.00 in0.0 mm 0.00 in0.0 mm
02:45 PM 80.2°F26.8°C 61.5°F16.4°C 53% 3.4 mph NNE5.5 kmh NNE 13.9 mph22.4 kmh 29.88 in1011.9 mb 0.00 in0.0 mm 0.00 in0.0 mm 0.00 in0.0 mm
03:00 PM 79.5°F26.4°C 60.3°F15.7°C 52% 15.0 mph NNE24.1 kmh NNE 18.3 mph29.5 kmh 29.88 in1011.9 mb 0.00 in0.0 mm 0.00 in0.0 mm 0.00 in0.0 mm
03:15 PM 79.3°F26.3°C 59.6°F15.3°C 51% 11.4 mph N18.3 kmh N 18.8 mph30.3 kmh 29.88 in1011.9 mb 0.00 in0.0 mm 0.00 in0.0 mm 0.00 in0.0 mm
03:30 PM 79.5°F26.4°C 60.3°F15.7°C 52% 7.8 mph NNE12.6 kmh NNE 20.4 mph32.8 kmh 29.88 in1011.9 mb 0.00 in0.0 mm 0.00 in0.0 mm 0.00 in0.0 mm
03:45 PM 79.3°F26.3°C 62.8°F17.1°C 57% 12.3 mph NNE19.8 kmh NNE 20.4 mph32.8 kmh 29.88 in1011.9 mb 0.00 in0.0 mm 0.00 in0.0 mm 0.00 in0.0 mm
04:00 PM 78.6°F25.9°C 63.7°F17.6°C 60% 12.8 mph NNE20.6 kmh NNE 20.4 mph32.8 kmh 29.89 in1012.2 mb 0.00 in0.0 mm 0.00 in0.0 mm 0.00 in0.0 mm
04:15 PM 78.6°F25.9°C 61.6°F16.4°C 56% 9.8 mph N15.8 kmh N 20.8 mph33.5 kmh 29.88 in1011.9 mb 0.00 in0.0 mm 0.00 in0.0 mm 0.00 in0.0 mm
04:30 PM 78.6°F25.9°C 63.2°F17.3°C 59% 4.5 mph NNE7.2 kmh NNE 19.5 mph31.4 kmh 29.88 in1011.9 mb 0.00 in0.0 mm 0.00 in0.0 mm 0.00 in0.0 mm
04:45 PM 78.6°F25.9°C 63.7°F17.6°C 60% 19.0 mph NNE30.6 kmh NNE 19.5 mph31.4 kmh 29.88 in1011.9 mb 0.00 in0.0 mm 0.00 in0.0 mm 0.00 in0.0 mm
05:00 PM 78.6°F25.9°C 62.1°F16.7°C 57% 12.8 mph NE20.6 kmh NE 17.4 mph28.0 kmh 29.88 in1011.9 mb 0.00 in0.0 mm 0.00 in0.0 mm 0.00 in0.0 mm
05:15 PM 78.4°F25.8°C 61.9°F16.6°C 57% 11.4 mph NNE18.3 kmh NNE 19.2 mph30.9 kmh 29.87 in1011.5 mb 0.00 in0.0 mm 0.00 in0.0 mm 0.00 in0.0 mm
05:30 PM 78.6°F25.9°C 64.1°F17.8°C 61% 10.5 mph N16.9 kmh N 18.3 mph29.5 kmh 29.88 in1011.9 mb 0.00 in0.0 mm 0.00 in0.0 mm 0.00 in0.0 mm
05:45 PM 78.4°F25.8°C 61.4°F16.3°C 56% 7.8 mph NE12.6 kmh NE 17.7 mph28.5 kmh 29.88 in1011.9 mb 0.00 in0.0 mm 0.00 in0.0 mm 0.00 in0.0 mm
06:00 PM 78.1°F25.6°C 61.1°F16.2°C 56% 18.1 mph N29.1 kmh N 20.1 mph32.3 kmh 29.89 in1012.2 mb 0.00 in0.0 mm 0.00 in0.0 mm 0.00 in0.0 mm
06:15 PM 77.9°F25.5°C 59.9°F15.5°C 54% 16.8 mph N27.0 kmh N 19.9 mph32.0 kmh 29.88 in1011.9 mb 0.00 in0.0 mm 0.00 in0.0 mm 0.00 in0.0 mm
06:30 PM 77.7°F25.4°C 59.7°F15.4°C 54% 10.3 mph N16.6 kmh N 20.6 mph33.2 kmh 29.89 in1012.2 mb 0.00 in0.0 mm 0.00 in0.0 mm 0.00 in0.0 mm
06:45 PM 77.4°F25.2°C 59.4°F15.2°C 54% 14.5 mph NNE23.3 kmh NNE 21.5 mph34.6 kmh 29.89 in1012.2 mb 0.00 in0.0 mm 0.00 in0.0 mm 0.00 in0.0 mm
07:00 PM 77.2°F25.1°C 60.7°F15.9°C 57% 10.1 mph N16.3 kmh N 20.4 mph32.8 kmh 29.90 in1012.5 mb 0.00 in0.0 mm 0.00 in0.0 mm 0.00 in0.0 mm
07:15 PM 76.8°F24.9°C 58.4°F14.7°C 53% 13.0 mph N20.9 kmh N 17.7 mph28.5 kmh 29.90 in1012.5 mb 0.00 in0.0 mm 0.00 in0.0 mm 0.00 in0.0 mm
07:30 PM 76.3°F24.6°C 59.4°F15.2°C 56% 6.3 mph NNE10.1 kmh NNE 19.5 mph31.4 kmh 29.90 in1012.5 mb 0.00 in0.0 mm 0.00 in0.0 mm 0.00 in0.0 mm
07:45 PM 76.1°F24.5°C 60.7°F15.9°C 59% 10.5 mph NNE16.9 kmh NNE 19.5 mph31.4 kmh 29.90 in1012.5 mb 0.00 in0.0 mm 0.00 in0.0 mm 0.00 in0.0 mm
08:00 PM 75.6°F24.2°C 58.7°F14.8°C 56% 10.1 mph NNE16.3 kmh NNE 17.9 mph28.8 kmh 29.91 in1012.9 mb 0.00 in0.0 mm 0.00 in0.0 mm 0.00 in0.0 mm
08:15 PM 75.0°F23.9°C 59.8°F15.4°C 59% 17.9 mph NNE28.8 kmh NNE 18.3 mph29.5 kmh 29.91 in1012.9 mb 0.00 in0.0 mm 0.00 in0.0 mm 0.00 in0.0 mm
08:30 PM 74.3°F23.5°C 59.5°F15.3°C 60% 12.8 mph N20.6 kmh N 19.0 mph30.6 kmh 29.92 in1013.2 mb 0.00 in0.0 mm 0.00 in0.0 mm 0.00 in0.0 mm
08:45 PM 74.1°F23.4°C 59.8°F15.4°C 61% 16.8 mph N27.0 kmh N 19.5 mph31.4 kmh 29.93 in1013.5 mb 0.00 in0.0 mm 0.00 in0.0 mm 0.00 in0.0 mm
09:00 PM 73.8°F23.2°C 59.0°F15.0°C 60% 15.9 mph N25.6 kmh N 20.1 mph32.3 kmh 29.93 in1013.5 mb 0.00 in0.0 mm 0.00 in0.0 mm 0.00 in0.0 mm
09:15 PM 73.6°F23.1°C 57.8°F14.3°C 58% 9.6 mph NNE15.4 kmh NNE 18.8 mph30.3 kmh 29.93 in1013.5 mb 0.00 in0.0 mm 0.00 in0.0 mm 0.00 in0.0 mm
09:30 PM 73.2°F22.9°C 57.5°F14.2°C 58% 4.3 mph NNE6.9 kmh NNE 18.6 mph29.9 kmh 29.93 in1013.5 mb 0.00 in0.0 mm 0.00 in0.0 mm 0.00 in0.0 mm
09:45 PM 72.7°F22.6°C 57.0°F13.9°C 58% Calm Calm 15.9 mph25.6 kmh 29.93 in1013.5 mb 0.00 in0.0 mm 0.00 in0.0 mm 0.00 in0.0 mm
10:00 PM 72.1°F22.3°C 57.5°F14.2°C 60% 7.2 mph NNE11.6 kmh NNE 18.8 mph30.3 kmh 29.93 in1013.5 mb 0.00 in0.0 mm 0.00 in0.0 mm 0.00 in0.0 mm
10:15 PM 71.8°F22.1°C 57.2°F14.0°C 60% 12.8 mph NNE20.6 kmh NNE 20.1 mph32.3 kmh 29.93 in1013.5 mb 0.00 in0.0 mm 0.00 in0.0 mm 0.00 in0.0 mm
10:30 PM 71.4°F21.9°C 57.3°F14.1°C 62% 12.1 mph NNE19.5 kmh NNE 17.2 mph27.7 kmh 29.93 in1013.5 mb 0.00 in0.0 mm 0.00 in0.0 mm 0.00 in0.0 mm
10:45 PM 70.9°F21.6°C 56.4°F13.6°C 60% 7.2 mph NNE11.6 kmh NNE 17.9 mph28.8 kmh 29.93 in1013.5 mb 0.00 in0.0 mm 0.00 in0.0 mm 0.00 in0.0 mm
11:00 PM 70.9°F21.6°C 56.8°F13.8°C 61% 15.4 mph NNE24.8 kmh NNE 17.9 mph28.8 kmh 29.93 in1013.5 mb 0.00 in0.0 mm 0.00 in0.0 mm 0.00 in0.0 mm
11:15 PM 70.9°F21.6°C 56.8°F13.8°C 61% 12.8 mph NNE20.6 kmh NNE 19.7 mph31.7 kmh 29.93 in1013.5 mb 0.00 in0.0 mm 0.00 in0.0 mm 0.00 in0.0 mm
11:30 PM 70.5°F21.4°C 56.9°F13.8°C 62% 4.5 mph NNE7.2 kmh NNE 18.8 mph30.3 kmh 29.93 in1013.5 mb 0.00 in0.0 mm 0.00 in0.0 mm 0.00 in0.0 mm
11:45 PM 70.3°F21.3°C 57.1°F13.9°C 63% 9.2 mph NNE14.8 kmh NNE 18.6 mph29.9 kmh 29.94 in1013.9 mb 0.00 in0.0 mm 0.00 in0.0 mm 0.00 in0.0 mm